createdAt,value
2022-12-31T00:01:53.431Z,1.23
2022-12-31T00:04:23.754Z,1.10
2022-12-31T00:06:56.457Z,1.20
2022-12-31T00:09:26.428Z,1.20
2022-12-31T00:11:56.503Z,1.47
2022-12-31T00:14:26.470Z,0.90
2022-12-31T00:16:59.467Z,0.80
2022-12-31T00:19:29.588Z,0.70
2022-12-31T00:22:02.256Z,1.17
2022-12-31T00:24:33.346Z,0.70
2022-12-31T00:27:03.411Z,1.37
2022-12-31T00:29:33.457Z,0.83
2022-12-31T00:32:03.480Z,1.03
2022-12-31T00:34:33.528Z,1.30
2022-12-31T00:37:06.109Z,0.97
2022-12-31T00:39:36.124Z,0.80
2022-12-31T00:42:06.424Z,0.80
2022-12-31T00:44:36.477Z,0.90
2022-12-31T00:47:06.743Z,1.20
2022-12-31T00:49:36.771Z,1.20
2022-12-31T00:52:09.847Z,1.00
2022-12-31T00:54:40.069Z,1.00
2022-12-31T00:57:10.058Z,1.17
2022-12-31T00:59:40.063Z,1.10
2022-12-31T01:02:10.295Z,1.30
2022-12-31T01:04:40.598Z,1.00
2022-12-31T01:07:13.258Z,1.43
2022-12-31T01:09:43.767Z,1.07
2022-12-31T01:12:14.124Z,1.20
2022-12-31T01:14:44.235Z,1.10
2022-12-31T01:17:14.300Z,0.80
2022-12-31T01:19:45.901Z,0.90
2022-12-31T01:22:18.735Z,1.60
2022-12-31T01:24:51.224Z,1.40
2022-12-31T01:27:21.221Z,1.30
2022-12-31T01:29:51.244Z,1.30
2022-12-31T01:32:21.240Z,1.10
2022-12-31T01:34:51.581Z,1.67
2022-12-31T01:37:24.215Z,1.07
2022-12-31T01:39:54.248Z,1.37
2022-12-31T01:42:24.407Z,0.97
2022-12-31T01:44:58.053Z,1.03
2022-12-31T01:47:50.503Z,0.90
2022-12-31T01:50:26.715Z,0.87
2022-12-31T01:53:03.863Z,1.10
2022-12-31T01:55:39.134Z,1.10
2022-12-31T01:58:15.360Z,1.27
2022-12-31T02:00:46.969Z,1.50
2022-12-31T02:03:17.558Z,1.20
2022-12-31T02:05:56.307Z,1.37
2022-12-31T02:08:28.932Z,1.97
2022-12-31T02:10:59.010Z,1.20
2022-12-31T02:13:29.241Z,1.70
2022-12-31T02:16:12.184Z,1.07
2022-12-31T02:18:53.836Z,1.17
2022-12-31T02:21:53.632Z,1.27
2022-12-31T02:24:55.545Z,1.10
2022-12-31T02:27:50.703Z,1.10
2022-12-31T02:30:27.662Z,1.30
2022-12-31T02:33:13.079Z,1.10
2022-12-31T02:35:51.872Z,1.20
2022-12-31T02:38:31.408Z,1.40
2022-12-31T02:41:02.063Z,1.10
2022-12-31T02:43:32.440Z,1.17
2022-12-31T02:46:18.468Z,1.10
2022-12-31T02:48:59.123Z,1.20
2022-12-31T02:51:46.216Z,1.10
2022-12-31T02:54:31.353Z,1.07
2022-12-31T02:57:12.691Z,1.47
2022-12-31T03:00:05.858Z,0.97
2022-12-31T03:02:42.589Z,1.20
2022-12-31T03:05:16.700Z,1.20
2022-12-31T03:07:48.313Z,1.50
2022-12-31T03:10:19.682Z,1.70
2022-12-31T03:12:48.278Z,0.90
2022-12-31T03:15:22.916Z,1.13
2022-12-31T03:18:00.557Z,1.30
2022-12-31T03:20:47.332Z,1.20
2022-12-31T03:23:23.393Z,1.70
2022-12-31T03:25:51.125Z,1.00
2022-12-31T03:28:24.331Z,1.20
2022-12-31T03:30:57.689Z,1.20
2022-12-31T03:33:35.171Z,1.30
2022-12-31T03:36:08.400Z,1.20
2022-12-31T03:38:38.603Z,1.17
2022-12-31T03:41:09.274Z,1.30
2022-12-31T03:43:39.290Z,1.00
2022-12-31T03:46:09.917Z,1.13
2022-12-31T03:48:42.572Z,1.10
2022-12-31T03:51:12.559Z,1.40
2022-12-31T03:53:42.546Z,1.27
2022-12-31T03:56:12.482Z,1.77
2022-12-31T03:58:42.747Z,1.10
2022-12-31T04:01:12.780Z,1.20
2022-12-31T04:03:45.578Z,1.20
2022-12-31T04:06:15.576Z,1.10
2022-12-31T04:08:45.530Z,1.40
2022-12-31T04:11:20.822Z,1.20
2022-12-31T04:13:51.166Z,1.17
2022-12-31T04:16:21.174Z,1.00
2022-12-31T04:18:54.120Z,1.40
2022-12-31T04:21:24.068Z,1.30
2022-12-31T04:23:54.338Z,1.10
2022-12-31T04:26:24.717Z,1.30
2022-12-31T04:28:54.900Z,1.37
2022-12-31T04:31:24.996Z,1.20
2022-12-31T04:33:57.595Z,1.13
2022-12-31T04:36:27.759Z,1.33
2022-12-31T04:38:58.511Z,1.00
2022-12-31T04:41:28.616Z,1.50
2022-12-31T04:44:01.331Z,0.93
2022-12-31T04:46:34.691Z,1.07
2022-12-31T04:49:07.590Z,1.20
2022-12-31T04:51:37.970Z,0.90
2022-12-31T04:54:08.602Z,0.90
2022-12-31T04:56:38.725Z,1.60
2022-12-31T04:59:10.141Z,1.10
2022-12-31T05:01:40.324Z,1.20
2022-12-31T05:04:12.962Z,1.10
2022-12-31T05:06:43.035Z,0.93
2022-12-31T05:09:13.048Z,0.93
2022-12-31T05:11:42.959Z,1.13
2022-12-31T05:14:13.443Z,1.10
2022-12-31T05:16:43.469Z,1.23
2022-12-31T05:19:16.607Z,1.30
2022-12-31T05:22:07.140Z,1.40
2022-12-31T05:24:37.143Z,1.43
2022-12-31T05:27:07.408Z,2.00
2022-12-31T05:29:37.812Z,2.13
2022-12-31T05:32:08.258Z,1.67
2022-12-31T05:34:40.811Z,1.40
2022-12-31T05:37:11.029Z,1.27
2022-12-31T05:39:41.064Z,1.13
2022-12-31T05:42:11.331Z,2.30
2022-12-31T05:44:41.315Z,2.20
2022-12-31T05:47:11.581Z,2.53
2022-12-31T05:49:44.116Z,1.40
2022-12-31T05:52:14.094Z,2.50
2022-12-31T05:54:44.137Z,1.40
2022-12-31T05:57:14.914Z,1.30
2022-12-31T05:59:45.098Z,1.47
2022-12-31T06:02:15.813Z,1.33
2022-12-31T06:04:48.365Z,1.13
2022-12-31T06:07:19.267Z,1.23
2022-12-31T06:09:49.449Z,1.53
2022-12-31T06:12:19.568Z,1.60
2022-12-31T06:14:49.518Z,1.40
2022-12-31T06:17:20.636Z,1.50
2022-12-31T06:19:53.322Z,1.40
2022-12-31T06:22:23.276Z,1.50
2022-12-31T06:24:53.272Z,1.03
2022-12-31T06:27:23.348Z,1.33
2022-12-31T06:29:53.831Z,1.67
2022-12-31T06:32:24.279Z,1.50
2022-12-31T06:34:56.965Z,1.70
2022-12-31T06:37:26.996Z,1.90
2022-12-31T06:39:57.065Z,1.90
2022-12-31T06:42:27.090Z,2.17
2022-12-31T06:44:57.148Z,1.60
2022-12-31T06:47:27.300Z,1.40
2022-12-31T06:50:00.179Z,1.73
2022-12-31T06:52:30.146Z,1.73
2022-12-31T06:55:01.315Z,1.90
2022-12-31T06:57:32.845Z,1.30
2022-12-31T07:00:03.822Z,1.60
2022-12-31T07:03:18.668Z,1.20
2022-12-31T07:05:59.709Z,1.33
2022-12-31T07:08:47.784Z,1.20
2022-12-31T07:11:24.978Z,1.77
2022-12-31T07:14:21.112Z,1.40
2022-12-31T07:17:08.929Z,1.37
2022-12-31T07:19:57.989Z,1.23
2022-12-31T07:22:32.013Z,1.47
2022-12-31T07:25:03.203Z,1.77
2022-12-31T07:27:52.982Z,1.73
2022-12-31T07:30:27.504Z,1.97
2022-12-31T07:33:14.077Z,1.83
2022-12-31T07:36:00.003Z,1.40
2022-12-31T07:38:43.288Z,1.53
2022-12-31T07:41:25.793Z,1.60
2022-12-31T07:44:06.738Z,1.77
2022-12-31T07:46:48.388Z,1.30
2022-12-31T07:49:19.537Z,1.20
2022-12-31T07:51:51.805Z,2.10
2022-12-31T07:54:25.076Z,1.50
2022-12-31T07:56:55.252Z,2.00
2022-12-31T07:59:44.453Z,1.80
2022-12-31T08:02:34.894Z,2.00
2022-12-31T08:05:18.096Z,2.20
2022-12-31T08:07:58.580Z,2.40
2022-12-31T08:10:40.336Z,1.47
2022-12-31T08:13:15.292Z,2.00
2022-12-31T08:15:46.342Z,1.47
2022-12-31T08:18:17.917Z,2.13
2022-12-31T08:21:02.670Z,1.30
2022-12-31T08:23:47.586Z,1.70
2022-12-31T08:26:37.538Z,1.50
2022-12-31T08:29:33.628Z,1.53
2022-12-31T08:32:15.372Z,1.50
2022-12-31T08:35:01.017Z,1.33
2022-12-31T08:37:42.112Z,1.27
2022-12-31T08:40:26.895Z,1.30
2022-12-31T08:43:22.143Z,1.60
2022-12-31T08:45:55.486Z,1.43
2022-12-31T08:48:36.082Z,1.70
2022-12-31T08:51:08.663Z,1.50
2022-12-31T08:53:41.680Z,1.57
2022-12-31T08:56:25.252Z,1.60
2022-12-31T08:59:11.163Z,1.83
2022-12-31T09:02:01.031Z,2.27
2022-12-31T09:04:48.830Z,1.73
2022-12-31T09:07:25.041Z,5.23
2022-12-31T09:10:05.800Z,5.50
2022-12-31T09:12:51.377Z,3.50
2022-12-31T09:15:33.102Z,2.20
2022-12-31T09:18:04.104Z,2.00
2022-12-31T09:20:44.246Z,1.60
2022-12-31T09:23:16.044Z,1.30
2022-12-31T09:26:03.868Z,1.63
2022-12-31T09:28:50.987Z,1.53
2022-12-31T09:31:38.296Z,1.57
2022-12-31T09:34:22.324Z,1.70
2022-12-31T09:37:02.177Z,1.20
2022-12-31T09:39:42.452Z,1.80
2022-12-31T09:43:02.766Z,3.30
2022-12-31T09:46:22.938Z,1.30
2022-12-31T09:49:54.273Z,1.40
2022-12-31T09:52:36.456Z,1.70
2022-12-31T09:55:33.398Z,1.30
2022-12-31T09:58:26.653Z,1.63
2022-12-31T10:01:10.098Z,1.53
2022-12-31T10:04:09.200Z,1.50
2022-12-31T10:06:56.752Z,1.80
2022-12-31T10:09:49.457Z,2.00
2022-12-31T10:13:04.701Z,1.50
2022-12-31T10:16:08.714Z,1.70
2022-12-31T10:19:15.965Z,1.80
2022-12-31T10:22:06.451Z,1.43
2022-12-31T10:25:08.594Z,2.00
2022-12-31T10:27:54.409Z,1.57
2022-12-31T10:30:27.210Z,2.83
2022-12-31T10:33:20.820Z,1.87
2022-12-31T10:35:56.994Z,1.67
2022-12-31T10:38:55.498Z,1.93
2022-12-31T10:42:22.600Z,1.70
2022-12-31T10:45:29.579Z,1.53
2022-12-31T10:48:40.801Z,1.97
2022-12-31T10:52:13.535Z,3.93
2022-12-31T10:55:30.858Z,2.67
2022-12-31T10:59:03.861Z,2.70
2022-12-31T11:01:51.515Z,2.67
2022-12-31T11:05:00.743Z,3.13
2022-12-31T11:08:23.235Z,1.50
2022-12-31T11:11:19.855Z,1.40
2022-12-31T11:14:32.096Z,1.67
2022-12-31T11:17:51.367Z,2.27
2022-12-31T11:20:45.531Z,1.67
2022-12-31T11:23:37.882Z,1.40
2022-12-31T11:26:26.886Z,1.30
2022-12-31T11:29:17.046Z,2.90
2022-12-31T11:32:08.261Z,1.63
2022-12-31T11:35:07.301Z,1.53
2022-12-31T11:37:48.225Z,1.40
2022-12-31T11:40:42.473Z,1.13
2022-12-31T11:43:30.780Z,1.67
2022-12-31T11:46:29.446Z,1.53
2022-12-31T11:49:26.571Z,1.33
2022-12-31T11:52:47.057Z,1.20
2022-12-31T11:55:52.956Z,1.03
2022-12-31T11:58:28.649Z,2.17
2022-12-31T12:01:04.177Z,1.77
2022-12-31T12:03:39.765Z,1.20
2022-12-31T12:06:14.559Z,1.17
2022-12-31T12:08:46.767Z,1.47
2022-12-31T12:11:26.531Z,1.63
2022-12-31T12:14:00.094Z,1.93
2022-12-31T12:16:31.352Z,1.93
2022-12-31T12:19:09.186Z,1.53
2022-12-31T12:21:50.038Z,1.97
2022-12-31T12:24:27.692Z,1.63
2022-12-31T12:26:59.253Z,1.80
2022-12-31T12:29:36.181Z,1.67
2022-12-31T12:32:10.287Z,1.60
2022-12-31T12:34:49.140Z,1.60
2022-12-31T12:37:34.405Z,1.90
2022-12-31T12:40:09.431Z,1.70
2022-12-31T12:42:49.543Z,2.13
2022-12-31T12:45:25.648Z,2.40
2022-12-31T12:48:02.976Z,1.23
2022-12-31T12:50:44.998Z,2.03
2022-12-31T12:53:39.733Z,2.00
2022-12-31T12:56:30.597Z,1.30
2022-12-31T12:59:32.764Z,2.17
2022-12-31T13:02:27.204Z,2.27
2022-12-31T13:05:24.381Z,4.50
2022-12-31T13:08:18.469Z,2.97
2022-12-31T13:11:21.921Z,1.80
2022-12-31T13:14:04.947Z,1.60
2022-12-31T13:16:45.655Z,1.83
2022-12-31T13:19:36.302Z,2.13
2022-12-31T13:22:14.282Z,2.13
2022-12-31T13:25:03.658Z,2.03
2022-12-31T13:27:40.652Z,2.10
2022-12-31T13:30:20.216Z,2.20
2022-12-31T13:32:58.549Z,2.23
2022-12-31T13:35:36.255Z,2.50
2022-12-31T13:38:15.447Z,2.87
2022-12-31T13:40:54.691Z,2.80
2022-12-31T13:43:39.873Z,2.30
2022-12-31T13:46:21.902Z,1.80
2022-12-31T13:48:59.143Z,3.40
2022-12-31T13:51:43.879Z,6.00
2022-12-31T13:54:33.638Z,5.50
2022-12-31T13:57:11.933Z,4.87
2022-12-31T13:59:51.198Z,6.30
2022-12-31T14:02:38.180Z,5.33
2022-12-31T14:05:21.579Z,3.17
2022-12-31T14:07:59.847Z,4.60
2022-12-31T14:10:44.068Z,3.63
2022-12-31T14:13:35.097Z,3.13
2022-12-31T14:16:23.001Z,4.07
2022-12-31T14:19:09.485Z,2.60
2022-12-31T14:21:48.841Z,2.70
2022-12-31T14:24:41.673Z,3.50
2022-12-31T14:27:19.934Z,2.33
2022-12-31T14:29:56.819Z,2.27
2022-12-31T14:33:07.935Z,2.43
2022-12-31T14:36:10.129Z,2.43
2022-12-31T14:39:10.003Z,2.80
2022-12-31T14:42:11.679Z,2.87
2022-12-31T14:45:02.869Z,3.60
2022-12-31T14:47:47.591Z,3.80
2022-12-31T14:50:23.936Z,6.43
2022-12-31T14:52:58.263Z,5.53
2022-12-31T14:55:33.737Z,4.83
2022-12-31T14:58:28.112Z,6.40
2022-12-31T15:01:00.774Z,4.50
2022-12-31T15:03:45.434Z,6.13
2022-12-31T15:06:49.653Z,4.03
2022-12-31T15:09:49.021Z,5.17
2022-12-31T15:12:59.282Z,5.33
2022-12-31T15:16:02.667Z,4.30
2022-12-31T15:18:52.913Z,5.30
2022-12-31T15:22:03.673Z,5.03
2022-12-31T15:24:34.300Z,5.90
2022-12-31T15:27:08.503Z,7.20
2022-12-31T15:29:47.686Z,4.77
2022-12-31T15:32:29.504Z,4.87
2022-12-31T15:35:07.033Z,3.33
2022-12-31T15:37:39.183Z,4.77
2022-12-31T15:40:25.082Z,6.20
2022-12-31T15:43:00.884Z,4.73
2022-12-31T15:45:37.997Z,3.97
2022-12-31T15:48:22.173Z,2.93
2022-12-31T15:50:56.902Z,3.97
2022-12-31T15:53:34.971Z,3.47
2022-12-31T15:56:07.055Z,4.13
2022-12-31T15:58:39.445Z,4.43
2022-12-31T16:01:18.468Z,3.90
2022-12-31T16:03:58.416Z,4.77
2022-12-31T16:06:34.112Z,6.83
2022-12-31T16:09:04.608Z,5.80
2022-12-31T16:11:41.022Z,4.87
2022-12-31T16:14:21.084Z,6.33
2022-12-31T16:17:03.063Z,9.87
2022-12-31T16:19:43.752Z,9.53
2022-12-31T16:22:20.816Z,10.23
2022-12-31T16:27:48.122Z,11.53
2022-12-31T16:30:25.459Z,12.50
2022-12-31T16:32:59.264Z,11.43
2022-12-31T16:35:36.334Z,11.10
2022-12-31T16:38:17.411Z,11.47
2022-12-31T16:41:09.670Z,13.23
2022-12-31T16:43:42.147Z,13.50
2022-12-31T16:46:20.393Z,14.50
2022-12-31T16:48:55.875Z,17.57
2022-12-31T16:51:33.265Z,17.50
2022-12-31T16:54:05.405Z,18.90
2022-12-31T16:56:39.783Z,23.60
2022-12-31T16:59:23.983Z,27.20
2022-12-31T17:01:56.996Z,28.40
2022-12-31T17:04:28.202Z,35.93
2022-12-31T17:07:43.322Z,98.20
2022-12-31T17:10:23.962Z,74.33
2022-12-31T17:15:49.259Z,39.20
2022-12-31T17:18:23.272Z,45.50
2022-12-31T17:20:56.529Z,68.50
2022-12-31T17:23:34.458Z,105.50
2022-12-31T17:26:13.299Z,109.07
2022-12-31T17:28:48.836Z,108.17
2022-12-31T17:31:37.318Z,101.47
2022-12-31T17:34:25.362Z,74.93
2022-12-31T17:37:04.944Z,82.53
2022-12-31T17:39:53.561Z,55.70
2022-12-31T17:42:33.967Z,37.63
2022-12-31T17:45:09.083Z,33.43
2022-12-31T17:47:42.806Z,39.30
2022-12-31T17:50:22.434Z,46.57
2022-12-31T17:52:52.881Z,43.77
2022-12-31T17:55:25.897Z,54.60
2022-12-31T17:57:59.896Z,43.23
2022-12-31T18:00:30.777Z,45.47
2022-12-31T18:03:00.836Z,37.97
2022-12-31T18:05:30.869Z,29.70
2022-12-31T18:08:00.905Z,25.00
2022-12-31T18:10:38.936Z,23.73
2022-12-31T18:13:14.913Z,18.50
2022-12-31T18:15:44.981Z,17.17
2022-12-31T18:18:25.870Z,17.63
2022-12-31T18:21:01.308Z,16.53
2022-12-31T18:23:38.222Z,13.70
2022-12-31T18:26:16.047Z,15.63
2022-12-31T18:28:46.191Z,21.10
2022-12-31T18:31:21.766Z,22.23
2022-12-31T18:33:53.918Z,28.03
2022-12-31T18:36:26.461Z,27.60
2022-12-31T18:38:56.496Z,23.50
2022-12-31T18:41:37.882Z,20.40
2022-12-31T18:44:08.198Z,18.70
2022-12-31T18:46:38.144Z,16.13
2022-12-31T18:49:08.152Z,16.03
2022-12-31T18:51:38.503Z,20.37
2022-12-31T18:54:09.740Z,16.30
2022-12-31T18:56:47.643Z,19.30
2022-12-31T18:59:19.292Z,17.23
2022-12-31T19:01:49.347Z,18.23
2022-12-31T19:04:27.476Z,17.50
2022-12-31T19:06:59.178Z,15.73
2022-12-31T19:09:46.113Z,19.07
2022-12-31T19:12:19.488Z,18.90
2022-12-31T19:14:49.476Z,18.00
2022-12-31T19:17:21.717Z,15.60
2022-12-31T19:19:51.699Z,15.67
2022-12-31T19:22:21.776Z,14.87
2022-12-31T19:24:51.746Z,12.23
2022-12-31T19:27:24.702Z,12.90
2022-12-31T19:29:54.612Z,13.53
2022-12-31T19:32:24.553Z,16.80
2022-12-31T19:34:54.522Z,19.07
2022-12-31T19:37:24.480Z,21.53
2022-12-31T19:39:54.640Z,19.07
2022-12-31T19:42:27.192Z,21.23
2022-12-31T19:44:57.288Z,25.80
2022-12-31T19:47:27.233Z,29.83
2022-12-31T19:49:57.181Z,32.33
2022-12-31T19:52:27.119Z,39.80
2022-12-31T19:54:57.176Z,42.97
2022-12-31T19:57:29.692Z,47.00
2022-12-31T19:59:59.655Z,35.97
2022-12-31T20:02:29.727Z,45.40
2022-12-31T20:04:59.813Z,49.27
2022-12-31T20:07:29.834Z,50.80
2022-12-31T20:09:59.804Z,45.13
2022-12-31T20:12:34.754Z,46.50
2022-12-31T20:15:09.525Z,44.23
2022-12-31T20:17:39.583Z,44.20
2022-12-31T20:20:11.268Z,132.13
2022-12-31T20:22:41.384Z,115.83
2022-12-31T20:25:12.245Z,115.60
2022-12-31T20:27:45.176Z,82.43
2022-12-31T20:30:16.794Z,190.33
2022-12-31T20:32:46.748Z,132.27
2022-12-31T20:35:16.848Z,96.43
2022-12-31T20:37:46.935Z,71.43
2022-12-31T20:40:17.591Z,73.90
2022-12-31T20:42:50.299Z,74.73
2022-12-31T20:45:20.492Z,67.27
2022-12-31T20:47:50.413Z,61.30
2022-12-31T20:50:20.891Z,62.60
2022-12-31T20:52:51.068Z,70.77
2022-12-31T20:55:21.247Z,69.93
2022-12-31T20:57:53.824Z,120.17
2022-12-31T21:00:24.097Z,87.43
2022-12-31T21:03:06.451Z,92.60
2022-12-31T21:05:38.508Z,157.87
2022-12-31T21:08:08.623Z,180.93
2022-12-31T21:10:38.649Z,203.77
2022-12-31T21:13:09.085Z,170.30
2022-12-31T21:15:39.193Z,299.43
2022-12-31T21:18:09.376Z,223.17
2022-12-31T21:20:39.368Z,196.60
2022-12-31T21:23:09.319Z,182.37
2022-12-31T21:25:39.243Z,153.53
2022-12-31T21:28:12.725Z,201.27
2022-12-31T21:30:44.220Z,163.53
2022-12-31T21:33:14.233Z,162.43
2022-12-31T21:35:51.795Z,159.30
2022-12-31T21:38:23.898Z,95.73
2022-12-31T21:40:54.086Z,88.27
2022-12-31T21:43:26.675Z,94.47
2022-12-31T21:46:04.511Z,86.83
2022-12-31T21:48:35.385Z,71.70
2022-12-31T21:51:12.993Z,76.53
2022-12-31T21:53:43.727Z,92.77
2022-12-31T21:56:14.571Z,79.73
2022-12-31T21:59:09.774Z,86.53
2022-12-31T22:01:52.403Z,75.00
2022-12-31T22:05:00.406Z,72.43
2022-12-31T22:07:12.739Z,84.50
2022-12-31T22:09:42.673Z,120.57
2022-12-31T22:12:12.640Z,102.53
2022-12-31T22:15:15.223Z,104.17
2022-12-31T22:17:35.226Z,98.00
2022-12-31T22:22:55.682Z,112.37
2022-12-31T22:25:25.913Z,111.50
2022-12-31T22:28:36.068Z,112.63
2022-12-31T22:30:51.081Z,92.67
2022-12-31T22:33:21.259Z,107.50
2022-12-31T22:36:01.937Z,98.40
2022-12-31T22:38:33.079Z,96.50
2022-12-31T22:41:08.935Z,111.80
2022-12-31T22:43:42.127Z,106.97
2022-12-31T22:46:18.354Z,101.47
2022-12-31T22:48:48.870Z,111.43
2022-12-31T22:51:20.747Z,121.53
2022-12-31T22:53:51.061Z,155.30
2022-12-31T22:56:22.661Z,197.67
2022-12-31T22:58:52.639Z,234.27
2022-12-31T23:01:27.659Z,190.77
2022-12-31T23:03:58.821Z,321.03
2022-12-31T23:06:29.271Z,388.00
2022-12-31T23:09:12.387Z,506.33
2022-12-31T23:11:43.693Z,921.83
2022-12-31T23:14:32.488Z,833.80
2022-12-31T23:17:31.210Z,760.17
2022-12-31T23:20:14.891Z,723.97
2022-12-31T23:22:57.394Z,666.13
2022-12-31T23:25:27.646Z,707.87
2022-12-31T23:27:57.773Z,711.20
2022-12-31T23:30:27.833Z,611.87
2022-12-31T23:33:00.512Z,647.37
2022-12-31T23:35:30.823Z,630.07
2022-12-31T23:38:01.482Z,656.57
2022-12-31T23:40:34.468Z,613.00
2022-12-31T23:43:06.222Z,590.00
2022-12-31T23:45:37.692Z,563.23
2022-12-31T23:48:10.986Z,636.60
2022-12-31T23:50:47.668Z,513.73
2022-12-31T23:53:21.011Z,476.10
2022-12-31T23:55:51.101Z,387.77
2022-12-31T23:58:21.689Z,312.90
